Time;durP1;ratioP1;P1;durP2;ratioP2;P2;SDS_P1;SDS_P2;PMS_P1;PMS_P2;Temp;Humidity;BMP_temperature;BMP_pressure;BME280_temperature;BME280_humidity;BME280_pressure;Samples;Min_cycle;Max_cycle;Signal;HPM_P1;HPM_P2
2024/01/05 00:00:12;;;;;;;2.00;1.60;;;;;;;7.44;54.42;99049.97;7847790;31;37838;-81
2024/01/05 00:04:28;;;;;;;2.05;1.80;;;;;;;7.19;54.92;99065.09;7847813;31;36974;-81
2024/01/05 00:08:44;;;;;;;2.80;1.80;;;;;;;7.74;53.59;99060.00;7847525;31;39775;-81
2024/01/05 00:13:00;;;;;;;2.80;1.85;;;;;;;7.81;53.47;99065.19;7847562;31;41451;-82
2024/01/05 00:17:17;;;;;;;1.70;1.60;;;;;;;7.72;53.19;99060.28;7847078;31;37755;-82
2024/01/05 00:21:33;;;;;;;4.22;1.70;;;;;;;7.84;53.11;99068.16;7847482;31;36935;-82
2024/01/05 00:25:49;;;;;;;1.60;1.50;;;;;;;7.72;53.37;99083.91;7846587;31;39272;-81
2024/01/05 00:30:06;;;;;;;1.92;1.70;;;;;;;7.71;53.42;99087.72;7845970;31;39924;-82
2024/01/05 00:34:23;;;;;;;2.80;1.60;;;;;;;7.92;52.86;99088.53;7847101;31;38608;-81
2024/01/05 00:38:46;;;;;;;1.92;1.67;;;;;;;8.00;52.55;99090.72;7846958;31;37011;-82
2024/01/05 00:43:04;;;;;;;3.00;1.95;;;;;;;7.65;53.17;99115.91;7847037;31;40026;-82
2024/01/05 00:47:20;;;;;;;5.25;1.80;;;;;;;7.77;53.05;99113.75;7846899;31;40831;-82
2024/01/05 00:51:36;;;;;;;3.40;1.92;;;;;;;7.62;53.43;99125.41;7846755;31;37511;-81
2024/01/05 00:55:52;;;;;;;2.67;1.67;;;;;;;8.03;52.50;99128.16;7846757;31;38162;-81
2024/01/05 01:00:09;;;;;;;2.87;1.73;;;;;;;7.84;52.56;99118.91;7846683;31;39331;-82
2024/01/05 01:04:26;;;;;;;2.78;1.70;;;;;;;7.76;52.92;99133.84;7846560;31;40823;-81
2024/01/05 01:08:43;;;;;;;2.30;1.60;;;;;;;7.85;52.64;99132.22;7846450;31;39333;-81
2024/01/05 01:13:01;;;;;;;6.25;1.77;;;;;;;7.61;53.70;99140.06;7845195;31;36962;-82
2024/01/05 01:17:18;;;;;;;1.70;1.60;;;;;;;7.63;53.50;99147.94;7846252;31;39182;-82
2024/01/05 01:21:34;;;;;;;1.90;1.70;;;;;;;8.05;53.03;99152.31;7846122;31;40607;-82
2024/01/05 01:25:50;;;;;;;1.77;1.67;;;;;;;7.81;53.84;99154.72;7845928;31;38550;-81
2024/01/05 01:30:08;;;;;;;4.25;1.60;;;;;;;7.97;53.84;99163.69;7845944;31;36937;-81
2024/01/05 01:34:24;;;;;;;1.60;1.50;;;;;;;7.73;53.34;99161.50;7845852;31;38995;-81
2024/01/05 01:38:41;;;;;;;1.80;1.62;;;;;;;7.81;53.66;99157.44;7848069;31;40026;-82
2024/01/05 01:42:57;;;;;;;1.65;1.55;;;;;;;8.20;52.55;99155.03;7849239;31;37818;-82
2024/01/05 01:47:14;;;;;;;3.40;1.60;;;;;;;7.78;53.75;99158.81;7849199;31;36973;-82
2024/01/05 01:51:32;;;;;;;6.32;1.77;;;;;;;7.88;53.58;99164.25;7848016;31;38986;-82
2024/01/05 01:55:50;;;;;;;3.00;1.52;;;;;;;7.99;53.04;99154.22;7849218;31;40677;-81
2024/01/05 02:00:07;;;;;;;1.77;1.52;;;;;;;8.11;52.45;99151.25;7847743;31;37865;-82
2024/01/05 02:04:24;;;;;;;3.00;1.60;;;;;;;8.24;52.45;99144.44;7847914;31;37741;-82
2024/01/05 02:08:40;;;;;;;3.65;1.60;;;;;;;8.05;52.75;99150.44;7847737;31;38916;-82
2024/01/05 02:12:57;;;;;;;2.03;1.62;;;;;;;8.06;52.29;99133.03;7848881;31;40768;-82
2024/01/05 02:17:33;;;;;;;3.08;1.90;;;;;;;7.98;52.58;99138.19;7848508;31;38692;-81
2024/01/05 02:21:53;;;;;;;2.87;1.70;;;;;;;7.83;52.98;99139.81;7848822;31;36740;-82
2024/01/05 02:26:09;;;;;;;4.20;1.95;;;;;;;8.33;52.40;99139.28;7848792;31;40073;-82
2024/01/05 02:30:26;;;;;;;3.87;1.90;;;;;;;7.25;55.56;99145.38;7848618;31;39873;-82
2024/01/05 02:34:42;;;;;;;2.47;1.60;;;;;;;7.84;53.70;99133.28;7848524;31;38479;-81
2024/01/05 02:38:58;;;;;;;1.58;1.48;;;;;;;7.86;53.95;99142.00;7848569;31;36600;-82
2024/01/05 02:43:15;;;;;;;3.15;2.00;;;;;;;7.97;53.01;99133.84;7848518;31;39279;-82
2024/01/05 02:47:31;;;;;;;2.47;1.75;;;;;;;8.37;51.71;99129.50;7848025;31;39944;-81
2024/01/05 02:51:47;;;;;;;2.10;1.70;;;;;;;8.67;50.66;99130.56;7848253;31;38499;-82
2024/01/05 02:56:04;;;;;;;2.83;1.70;;;;;;;8.62;50.29;99123.25;7848526;31;37059;-82
2024/01/05 03:00:21;;;;;;;2.92;1.80;;;;;;;8.84;49.75;99117.47;7848299;31;39925;-82
2024/01/05 03:04:40;;;;;;;2.87;1.90;;;;;;;8.91;49.49;99125.34;7848206;31;39980;-82
2024/01/05 03:08:56;;;;;;;5.93;1.77;;;;;;;8.96;48.97;99123.41;7848298;31;37724;-82
2024/01/05 03:13:13;;;;;;;2.33;1.77;;;;;;;8.71;50.45;99132.47;7848105;31;36931;-82
2024/01/05 03:17:29;;;;;;;3.42;1.70;;;;;;;8.76;50.19;99123.47;7847969;31;39429;-82
2024/01/05 03:21:45;;;;;;;1.90;1.45;;;;;;;8.26;50.41;99115.09;7848179;31;40005;-82
2024/01/05 03:26:01;;;;;;;2.90;1.60;;;;;;;9.30;47.93;99098.25;7847841;31;38519;-82
2024/01/05 03:30:18;;;;;;;3.05;1.70;;;;;;;9.31;47.39;99097.19;7847933;31;37652;-82
2024/01/05 03:34:35;;;;;;;2.67;1.60;;;;;;;9.17;47.75;99096.13;7847911;31;39525;-81
2024/01/05 03:38:51;;;;;;;2.70;1.77;;;;;;;9.32;47.38;99101.50;7847693;31;41534;-82
2024/01/05 03:43:08;;;;;;;3.08;1.70;;;;;;;9.41;47.06;99104.44;7847727;31;37920;-82
2024/01/05 03:47:24;;;;;;;3.92;1.70;;;;;;;8.99;47.79;99106.56;7848147;31;36861;-82
2024/01/05 03:51:40;;;;;;;2.92;1.75;;;;;;;8.81;48.08;99105.28;7847783;31;40773;-82
2024/01/05 03:56:00;;;;;;;3.17;1.70;;;;;;;8.96;47.83;99112.53;7847644;31;40742;-81
2024/01/05 04:00:17;;;;;;;1.58;1.42;;;;;;;9.24;47.02;99107.53;7846496;31;37827;-82
2024/01/05 04:04:33;;;;;;;4.00;1.60;;;;;;;8.77;48.03;99123.19;7847566;31;36866;-82
2024/01/05 04:08:51;;;;;;;3.35;1.60;;;;;;;8.83;47.93;99105.00;7847513;31;40056;-82
2024/01/05 04:13:08;;;;;;;2.75;1.70;;;;;;;9.33;46.54;99092.25;7847416;31;39891;-82
2024/01/05 04:17:24;;;;;;;4.75;2.37;;;;;;;9.09;47.07;99099.44;7847132;31;39229;-82
2024/01/05 04:21:41;;;;;;;3.85;1.80;;;;;;;8.95;47.41;99107.38;7847324;31;36702;-81
2024/01/05 04:25:57;;;;;;;4.37;1.80;;;;;;;8.62;48.00;99109.66;7847269;31;39178;-82
2024/01/05 04:30:14;;;;;;;4.90;1.90;;;;;;;8.96;47.52;99098.12;7847168;31;40014;-82
2024/01/05 04:34:30;;;;;;;1.77;1.50;;;;;;;9.07;47.24;99109.78;7847122;31;38472;-81
2024/01/05 04:38:46;;;;;;;4.22;1.80;;;;;;;8.93;47.85;99129.41;7847075;31;37424;-82
2024/01/05 04:43:03;;;;;;;2.10;1.70;;;;;;;8.81;47.89;99134.34;7847034;31;39941;-82
2024/01/05 04:47:19;;;;;;;5.55;1.80;;;;;;;8.62;48.41;99136.81;7846938;31;40955;-83
2024/01/05 04:51:35;;;;;;;4.20;1.70;;;;;;;8.60;48.56;99142.53;7845541;31;37818;-82
2024/01/05 04:55:52;;;;;;;4.07;1.85;;;;;;;8.62;48.39;99137.66;7846679;31;36958;-82
2024/01/05 05:00:08;;;;;;;3.80;1.90;;;;;;;8.58;48.58;99138.47;7846636;31;39036;-82
2024/01/05 05:04:25;;;;;;;3.05;1.77;;;;;;;8.32;49.22;99152.03;7846640;31;39907;-82
2024/01/05 05:08:41;;;;;;;2.40;1.90;;;;;;;8.22;49.33;99160.19;7846663;31;37897;-82
2024/01/05 05:12:57;;;;;;;5.60;2.22;;;;;;;8.21;49.28;99151.25;7846134;31;37810;-83
2024/01/05 05:17:13;;;;;;;3.50;1.90;;;;;;;8.26;49.19;99142.25;7846073;31;39215;-81
2024/01/05 05:21:30;;;;;;;2.30;1.80;;;;;;;8.40;48.86;99139.81;7846161;31;40879;-82
2024/01/05 05:25:47;;;;;;;4.07;1.73;;;;;;;8.41;48.77;99138.72;7845976;31;37880;-82
2024/01/05 05:30:08;;;;;;;4.95;1.90;;;;;;;8.32;49.09;99145.81;7845984;31;36996;-81
2024/01/05 05:34:24;;;;;;;4.75;2.10;;;;;;;8.44;48.81;99143.66;7845890;31;40567;-82
2024/01/05 05:38:40;;;;;;;2.40;2.08;;;;;;;8.00;50.16;99146.87;7845700;31;39605;-82
2024/01/05 05:42:57;;;;;;;3.08;2.05;;;;;;;8.00;50.26;99144.16;7845556;31;37765;-82
2024/01/05 05:47:13;;;;;;;4.55;2.10;;;;;;;8.30;49.43;99151.50;7845557;31;37064;-81
2024/01/05 05:51:29;;;;;;;4.43;2.00;;;;;;;8.29;49.64;99152.59;7845462;31;39441;-81
2024/01/05 05:55:45;;;;;;;2.97;2.10;;;;;;;8.07;50.08;99150.13;7845380;31;39963;-81
2024/01/05 06:00:02;;;;;;;6.43;2.20;;;;;;;8.15;49.60;99152.31;7845075;31;38460;-82
2024/01/05 06:04:18;;;;;;;3.53;2.20;;;;;;;7.67;50.60;99162.56;7845178;31;36773;-81
2024/01/05 06:08:35;;;;;;;3.78;2.37;;;;;;;8.13;49.69;99162.63;7845038;31;39179;-81
2024/01/05 06:12:51;;;;;;;3.47;2.20;;;;;;;7.93;50.11;99174.28;7844932;31;40890;-81
2024/01/05 06:17:07;;;;;;;7.28;2.78;;;;;;;7.88;50.04;99199.53;7844485;31;38751;-82
2024/01/05 06:21:25;;;;;;;4.85;2.67;;;;;;;7.53;51.06;99217.31;7844873;31;37002;-81
2024/01/05 06:25:41;;;;;;;6.93;2.83;;;;;;;7.65;50.68;99206.25;7848385;31;39353;-82
2024/01/05 06:29:58;;;;;;;3.42;2.10;;;;;;;7.41;51.47;99208.59;7848740;31;40727;-83
2024/01/05 06:34:14;;;;;;;3.53;2.53;;;;;;;7.45;52.03;99226.00;7848597;31;37905;-81
2024/01/05 06:38:31;;;;;;;2.42;2.22;;;;;;;7.39;52.39;99237.88;7848503;31;36922;-81
2024/01/05 06:42:47;;;;;;;4.87;2.33;;;;;;;7.38;52.37;99236.28;7848516;31;40830;-81
2024/01/05 06:47:03;;;;;;;3.65;2.30;;;;;;;7.48;51.91;99243.62;7848290;31;39968;-82
2024/01/05 06:51:23;;;;;;;4.03;2.50;;;;;;;7.54;51.73;99245.28;7848288;31;38553;-82
2024/01/05 06:55:39;;;;;;;24.70;9.07;;;;;;;7.53;51.82;99228.16;7848447;31;37025;-82
2024/01/05 06:59:55;;;;;;;20.23;7.93;;;;;;;7.52;51.66;99229.28;7847804;31;39189;-82
2024/01/05 07:04:12;;;;;;;4.60;3.17;;;;;;;7.60;51.35;99221.69;7848161;31;40167;-82
2024/01/05 07:08:28;;;;;;;7.47;2.55;;;;;;;7.59;51.35;99209.19;7848061;31;37497;-81
2024/01/05 07:12:45;;;;;;;8.63;4.03;;;;;;;7.39;52.09;99215.37;7846943;31;36951;-81
2024/01/05 07:17:01;;;;;;;35.17;16.23;;;;;;;7.52;51.75;99229.28;7848188;31;39377;-81
2024/01/05 07:21:18;;;;;;;11.27;6.07;;;;;;;7.62;51.34;99241.22;7847807;31;39979;-82
2024/01/05 07:25:35;;;;;;;5.78;3.28;;;;;;;7.62;51.53;99230.38;7847955;31;38001;-82
2024/01/05 07:29:55;;;;;;;7.05;2.70;;;;;;;7.93;50.95;99230.47;7847975;31;36984;-82
2024/01/05 07:34:11;;;;;;;4.05;2.62;;;;;;;7.94;50.91;99226.69;7847934;31;39303;-83
2024/01/05 07:38:27;;;;;;;6.22;2.33;;;;;;;7.69;51.83;99220.09;7847739;31;39926;-82
2024/01/05 07:42:44;;;;;;;3.15;2.22;;;;;;;7.85;51.71;99210.91;7847671;31;37749;-82
2024/01/05 07:47:00;;;;;;;5.95;2.40;;;;;;;8.17;51.05;99218.03;7847913;31;37579;-82
2024/01/05 07:51:19;;;;;;;4.53;1.92;;;;;;;8.19;51.41;99209.59;7847612;31;38962;-82
2024/01/05 07:55:36;;;;;;;3.45;2.17;;;;;;;8.31;51.31;99209.34;7847691;31;40882;-82
2024/01/05 07:59:52;;;;;;;2.72;1.80;;;;;;;8.47;51.16;99205.59;7847437;31;38006;-82
2024/01/05 08:04:08;;;;;;;4.70;2.70;;;;;;;8.63;50.90;99204.47;7847515;31;37504;-82
2024/01/05 08:08:25;;;;;;;9.73;3.97;;;;;;;8.77;50.15;99195.78;7847436;31;39214;-81
2024/01/05 08:12:41;;;;;;;8.82;4.35;;;;;;;8.47;51.33;99197.44;7847389;31;40016;-82
2024/01/05 08:16:57;;;;;;;13.23;5.65;;;;;;;8.74;51.28;99177.28;7847151;31;37864;-82
2024/01/05 08:21:13;;;;;;;12.10;5.68;;;;;;;8.18;52.76;99186.28;7847274;31;36976;-81
2024/01/05 08:25:30;;;;;;;9.23;4.90;;;;;;;8.15;52.75;99195.75;7847262;31;39293;-82
2024/01/05 08:29:46;;;;;;;9.23;4.10;;;;;;;8.09;52.23;99197.66;7847361;31;39742;-82
2024/01/05 08:34:02;;;;;;;8.63;4.00;;;;;;;8.21;52.11;99216.41;7847091;31;38342;-81
2024/01/05 08:38:19;;;;;;;9.95;5.75;;;;;;;8.84;50.20;99218.84;7847061;31;37090;-81
2024/01/05 08:42:35;;;;;;;12.88;7.12;;;;;;;8.58;51.47;99220.78;7847077;31;39356;-82
2024/01/05 08:46:51;;;;;;;12.85;6.72;;;;;;;8.51;52.23;99217.53;7846318;31;39930;-81
2024/01/05 08:51:08;;;;;;;10.25;6.03;;;;;;;8.69;51.95;99226.22;7846717;31;38702;-81
2024/01/05 08:55:24;;;;;;;13.70;6.62;;;;;;;8.97;50.86;99243.88;7846748;31;36821;-81
2024/01/05 08:59:41;;;;;;;12.50;5.55;;;;;;;9.28;50.58;99244.63;7846579;31;39734;-82
2024/01/05 09:03:57;;;;;;;9.60;3.45;;;;;;;9.26;50.10;99240.53;7846618;31;40785;-81
2024/01/05 09:08:13;;;;;;;9.00;4.05;;;;;;;9.70;48.48;99234.38;7846427;31;38834;-82
2024/01/05 09:12:30;;;;;;;9.77;4.72;;;;;;;9.93;47.89;99227.44;7846443;31;37672;-82
2024/01/05 09:16:46;;;;;;;7.05;3.47;;;;;;;10.47;47.30;99221.13;7846167;31;39345;-82
2024/01/05 09:21:02;;;;;;;7.15;3.87;;;;;;;10.81;46.59;99212.09;7846171;31;40511;-82
2024/01/05 09:25:19;;;;;;;11.90;5.50;;;;;;;9.88;47.79;99222.87;7846232;31;38114;-82
2024/01/05 09:29:36;;;;;;;11.15;5.50;;;;;;;10.13;48.39;99221.88;7846038;31;36970;-82
2024/01/05 09:33:52;;;;;;;11.10;4.60;;;;;;;10.25;47.62;99231.63;7845929;31;39071;-81
2024/01/05 09:38:09;;;;;;;12.73;4.50;;;;;;;10.31;47.27;99241.38;7845679;31;40023;-83
2024/01/05 09:42:26;;;;;;;11.43;5.45;;;;;;;10.80;45.46;99251.38;7845481;31;37929;-82
2024/01/05 09:46:44;;;;;;;9.88;5.00;;;;;;;11.15;45.07;99240.41;7845514;31;36736;-82
2024/01/05 09:51:03;;;;;;;9.80;4.45;;;;;;;11.37;45.52;99227.06;7845469;31;39971;-82
2024/01/05 09:55:19;;;;;;;8.73;4.47;;;;;;;11.61;43.77;99229.78;7844162;31;41137;-81
2024/01/05 09:59:37;;;;;;;9.60;3.90;;;;;;;11.93;43.49;99209.16;7847561;31;37847;-82
2024/01/05 10:03:59;;;;;;;10.32;4.30;;;;;;;12.38;42.36;99201.41;7847805;31;37746;-82
2024/01/05 10:08:15;;;;;;;8.63;3.05;;;;;;;12.80;42.04;99187.00;7847768;31;39402;-83
2024/01/05 10:12:32;;;;;;;6.47;3.25;;;;;;;13.22;40.47;99174.19;7848960;31;41022;-82
2024/01/05 10:16:49;;;;;;;6.30;3.33;;;;;;;13.74;39.50;99169.28;7848568;31;37605;-82
2024/01/05 10:21:09;;;;;;;9.57;4.00;;;;;;;14.07;38.85;99147.16;7847493;31;37671;-83
2024/01/05 10:25:27;;;;;;;5.68;2.90;;;;;;;14.26;38.37;99125.88;7848748;31;40608;-83
2024/01/05 10:29:44;;;;;;;5.00;2.17;;;;;;;14.69;36.96;99123.72;7848819;31;41624;-82
2024/01/05 10:34:01;;;;;;;4.87;2.12;;;;;;;15.33;35.79;99117.78;7848435;31;37928;-83
2024/01/05 10:38:18;;;;;;;4.45;1.80;;;;;;;15.12;35.39;99114.84;7824153;31;36878;-82
2024/01/05 10:42:35;;;;;;;5.07;2.15;;;;;;;15.76;34.33;99114.31;7820957;32;39174;-82
2024/01/05 10:46:52;;;;;;;4.60;2.17;;;;;;;15.57;35.00;99111.84;7841547;31;39862;-81
2024/01/05 10:51:12;;;;;;;4.70;2.00;;;;;;;15.79;35.49;99112.88;7825086;31;37980;-82
2024/01/05 10:55:31;;;;;;;4.75;2.42;;;;;;;16.18;34.93;99103.66;7829214;31;36727;-82
2024/01/05 10:59:54;;;;;;;11.07;3.12;;;;;;;16.64;34.69;99087.50;7820730;32;39382;-82
2024/01/05 11:04:12;;;;;;;6.47;3.03;;;;;;;16.74;34.23;99084.38;7827886;31;39943;-83
2024/01/05 11:09:02;;;;;;;8.95;3.55;;;;;;;17.07;33.62;99079.09;7826408;31;39061;-78
2024/01/05 11:13:27;;;;;;;8.85;3.47;;;;;;;16.42;34.73;99077.53;7821925;31;37604;-82
2024/01/05 11:18:08;;;;;;;6.40;2.67;;;;;;;16.65;34.63;99058.84;7820480;32;39184;-82
2024/01/05 11:22:28;;;;;;;5.97;2.37;;;;;;;16.95;33.02;99053.38;7820338;32;40306;-83
2024/01/05 11:26:45;;;;;;;4.95;2.33;;;;;;;16.95;33.51;99053.38;7819180;32;37863;-83
2024/01/05 11:31:01;;;;;;;6.40;2.30;;;;;;;16.91;31.14;99046.94;7820392;32;37017;-83
2024/01/05 11:35:20;;;;;;;7.75;2.50;;;;;;;16.14;31.91;99048.50;7820383;32;39183;-83
2024/01/05 11:39:48;;;;;;;7.43;2.58;;;;;;;16.47;31.55;99045.16;7820224;32;40929;-83
2024/01/05 11:44:04;;;;;;;8.00;2.58;;;;;;;16.70;31.49;99044.91;7820209;32;37681;-83
2024/01/05 11:48:36;;;;;;;5.50;2.40;;;;;;;17.19;32.06;99030.72;7820204;32;37506;-83
2024/01/05 11:53:14;;;;;;;;;;;;;;;17.15;31.01;99029.78;7820498;32;39295;-83
2024/01/05 11:57:30;;;;;;;5.03;2.05;;;;;;;17.39;30.65;99029.12;7820450;32;40258;-83
2024/01/05 12:01:52;;;;;;;5.97;2.10;;;;;;;17.29;29.35;99024.81;7819858;32;37618;-83
2024/01/05 12:06:10;;;;;;;4.20;2.13;;;;;;;16.36;31.22;99021.88;7820027;32;37115;-83
2024/01/05 12:10:29;;;;;;;4.93;2.10;;;;;;;16.50;29.76;99030.72;7820096;32;39462;-83
2024/01/05 12:14:46;;;;;;;7.00;1.92;;;;;;;15.23;31.67;99041.22;7819642;32;40001;-83
2024/01/05 12:19:02;;;;;;;3.75;1.90;;;;;;;14.58;32.83;99044.44;7819660;32;38058;-83
2024/01/05 12:23:19;;;;;;;4.95;2.50;;;;;;;14.30;34.38;99038.31;7818873;32;37758;-83
2024/01/05 12:27:39;;;;;;;2.80;2.10;;;;;;;14.03;33.82;99040.09;7819680;32;39978;-83
2024/01/05 12:31:55;;;;;;;6.68;2.70;;;;;;;12.85;36.58;99025.53;7819568;32;40801;-83
2024/01/05 12:36:22;;;;;;;5.60;3.05;;;;;;;13.40;35.06;99022.72;7819474;32;38036;-82
2024/01/05 12:40:39;;;;;;;5.68;2.67;;;;;;;13.02;36.18;99017.53;7818450;32;37678;-82
2024/01/05 12:44:55;;;;;;;8.93;3.00;;;;;;;13.08;36.23;99026.44;7819462;32;39249;-83
2024/01/05 12:49:21;;;;;;;6.93;3.20;;;;;;;12.38;39.24;99023.72;7819359;32;39998;-83
2024/01/05 12:53:39;;;;;;;6.20;2.90;;;;;;;12.78;36.97;99002.16;7805367;32;37933;-83
2024/01/05 12:58:05;;;;;;;6.15;2.90;;;;;;;12.84;38.04;99000.09;7819173;32;37676;-83
2024/01/05 13:02:21;;;;;;;8.45;2.87;;;;;;;13.07;38.07;98992.78;7817996;32;39398;-83
2024/01/05 13:06:40;;;;;;;6.18;2.80;;;;;;;13.09;38.13;98981.50;7819035;32;40756;-83
2024/01/05 13:10:56;;;;;;;7.00;3.08;;;;;;;12.62;38.85;98989.91;7819008;32;38463;-82
2024/01/05 13:15:14;;;;;;;6.82;3.35;;;;;;;12.95;37.79;98990.56;7818776;32;36954;-82
2024/01/05 13:19:30;;;;;;;4.87;2.53;;;;;;;12.44;39.04;98997.09;7818823;32;39842;-83
2024/01/05 13:23:52;;;;;;;10.10;3.28;;;;;;;12.98;38.03;98991.06;7818792;32;39972;-83
2024/01/05 13:28:08;;;;;;;4.60;2.72;;;;;;;12.20;39.44;99008.22;7818586;32;37670;-82
2024/01/05 13:32:24;;;;;;;8.43;3.35;;;;;;;12.95;38.56;99001.53;7819811;32;36630;-83
2024/01/05 13:36:41;;;;;;;7.82;3.37;;;;;;;13.09;38.26;98993.28;7821810;32;39522;-83
2024/01/05 13:40:57;;;;;;;8.35;3.30;;;;;;;13.16;38.09;98984.66;7821744;32;40811;-83
2024/01/05 13:45:14;;;;;;;7.40;3.10;;;;;;;13.14;38.53;98979.50;7821590;32;38655;-84
2024/01/05 13:49:32;;;;;;;6.80;3.00;;;;;;;13.29;37.84;98974.75;7821700;32;37719;-83
2024/01/05 13:53:49;;;;;;;8.75;3.25;;;;;;;13.22;38.07;98969.72;7821664;32;39245;-82
2024/01/05 13:58:06;;;;;;;6.18;3.25;;;;;;;13.28;37.84;98971.22;7821537;32;39986;-84
2024/01/05 14:02:22;;;;;;;8.07;3.35;;;;;;;12.96;38.74;98969.50;7821332;32;37725;-82
2024/01/05 14:06:38;;;;;;;7.25;3.50;;;;;;;12.73;39.21;98968.62;7821487;32;37403;-83
2024/01/05 14:10:55;;;;;;;8.45;3.90;;;;;;;13.03;39.10;98964.41;7821399;32;39303;-82
2024/01/05 14:15:11;;;;;;;7.47;3.42;;;;;;;13.13;38.94;98969.66;7821091;32;39967;-84
2024/01/05 14:19:27;;;;;;;8.35;4.18;;;;;;;12.95;39.13;98957.75;7821069;32;37913;-83
2024/01/05 14:23:44;;;;;;;6.90;3.85;;;;;;;12.83;39.78;98959.38;7821260;32;37779;-83
2024/01/05 14:28:00;;;;;;;9.63;3.50;;;;;;;12.67;40.35;98954.25;7821186;32;39041;-83
2024/01/05 14:32:17;;;;;;;7.47;3.10;;;;;;;12.62;40.60;98956.28;7821020;32;40868;-83
2024/01/05 14:36:33;;;;;;;13.45;3.62;;;;;;;12.56;40.80;98950.13;7821108;32;38751;-83
2024/01/05 14:40:49;;;;;;;10.18;3.85;;;;;;;12.23;41.24;98958.44;7820860;32;36989;-82
2024/01/05 14:45:06;;;;;;;8.50;3.95;;;;;;;12.18;41.74;98974.91;7820377;32;39312;-83
2024/01/05 14:49:22;;;;;;;7.95;3.85;;;;;;;12.26;41.65;98960.53;7820826;32;39653;-82
2024/01/05 14:53:39;;;;;;;9.48;3.67;;;;;;;12.23;41.82;98957.59;7820792;32;37984;-82
2024/01/05 14:57:55;;;;;;;9.90;3.75;;;;;;;12.20;42.07;98954.38;7820788;32;37079;-83
2024/01/05 15:02:12;;;;;;;7.12;3.72;;;;;;;12.02;42.59;98953.34;7820642;32;39212;-83
2024/01/05 15:06:28;;;;;;;12.10;4.18;;;;;;;11.76;43.02;98963.06;7820631;32;40151;-83
2024/01/05 15:10:44;;;;;;;6.57;3.45;;;;;;;11.85;43.13;98958.56;7820579;32;37754;-83
2024/01/05 15:15:00;;;;;;;13.27;4.25;;;;;;;11.62;43.42;98966.59;7820444;32;36581;-83
2024/01/05 15:19:19;;;;;;;11.25;3.85;;;;;;;11.71;43.43;98965.88;7820705;32;39180;-82
2024/01/05 15:23:35;;;;;;;10.77;4.72;;;;;;;11.62;43.70;98969.31;7820356;32;40351;-83
2024/01/05 15:27:52;;;;;;;7.68;3.72;;;;;;;11.40;44.07;98975.41;7820267;32;38657;-82
2024/01/05 15:32:11;;;;;;;7.43;4.07;;;;;;;11.42;44.17;98972.37;7820500;32;37042;-83
2024/01/05 15:36:27;;;;;;;9.32;4.68;;;;;;;11.60;43.98;98968.78;7820394;32;39246;-83
2024/01/05 15:40:43;;;;;;;13.57;6.12;;;;;;;11.42;44.17;98970.44;7820160;32;41567;-83
2024/01/05 15:44:59;;;;;;;12.65;6.68;;;;;;;11.37;44.30;98976.00;7820172;32;38141;-83
2024/01/05 15:49:17;;;;;;;12.82;5.12;;;;;;;11.27;44.76;98985.13;7820244;32;37917;-83
2024/01/05 15:53:33;;;;;;;12.35;5.20;;;;;;;11.18;44.97;98994.31;7820122;32;39467;-83
2024/01/05 15:57:50;;;;;;;12.00;5.60;;;;;;;11.15;45.21;98979.31;7818875;32;39947;-83
2024/01/05 16:02:06;;;;;;;10.65;5.32;;;;;;;11.08;45.46;98987.87;7819957;32;37938;-82
2024/01/05 16:06:23;;;;;;;10.82;5.40;;;;;;;10.95;45.95;99001.41;7819953;32;37793;-83
2024/01/05 16:10:39;;;;;;;13.82;6.70;;;;;;;10.75;46.66;99006.03;7819966;32;39255;-83
2024/01/05 16:14:55;;;;;;;11.52;5.93;;;;;;;10.75;46.85;98995.16;7819629;32;40782;-82
2024/01/05 16:19:12;;;;;;;13.48;6.45;;;;;;;10.82;46.78;98989.34;7819664;32;38634;-83
2024/01/05 16:23:28;;;;;;;11.70;5.82;;;;;;;10.72;46.99;98993.00;7819697;32;36927;-82
2024/01/05 16:27:44;;;;;;;11.25;5.72;;;;;;;10.81;47.04;98990.44;7819742;32;38956;-83
2024/01/05 16:32:01;;;;;;;11.90;5.50;;;;;;;10.62;47.58;98988.47;7819582;32;40943;-83
2024/01/05 16:36:17;;;;;;;10.18;5.40;;;;;;;10.60;47.57;99001.59;7819446;32;37928;-82
2024/01/05 16:40:34;;;;;;;11.82;6.00;;;;;;;10.66;47.48;99002.34;7819455;32;37250;-83
2024/01/05 16:44:50;;;;;;;21.37;7.25;;;;;;;10.57;47.93;98993.19;7818262;32;39243;-83
2024/01/05 16:49:07;;;;;;;13.93;6.40;;;;;;;10.51;48.18;98993.25;7819335;32;40073;-83
2024/01/05 16:53:25;;;;;;;15.82;8.00;;;;;;;10.52;48.36;98983.97;7819214;32;38807;-82
2024/01/05 16:57:41;;;;;;;14.98;7.85;;;;;;;10.43;49.10;98990.34;7819262;32;37180;-83
2024/01/05 17:01:58;;;;;;;13.88;7.55;;;;;;;10.33;49.66;98999.44;7819093;32;40122;-83
2024/01/05 17:06:14;;;;;;;17.30;8.32;;;;;;;10.27;50.18;99003.31;7818659;32;39950;-83
2024/01/05 17:10:35;;;;;;;20.98;9.57;;;;;;;10.20;50.65;99005.56;7818971;32;37975;-82
2024/01/05 17:14:51;;;;;;;19.60;9.02;;;;;;;10.14;51.04;99000.16;7810439;32;266661;-83
2024/01/05 17:19:08;;;;;;;18.87;9.38;;;;;;;10.18;50.86;98997.69;7818815;32;39992;-83
2024/01/05 17:23:25;;;;;;;22.17;10.73;;;;;;;9.86;51.48;98995.53;7818553;32;41012;-84
2024/01/05 17:27:41;;;;;;;18.35;9.48;;;;;;;9.73;52.08;98997.81;7818452;32;37747;-82
2024/01/05 17:31:58;;;;;;;19.75;9.55;;;;;;;9.68;52.18;99003.31;7818599;32;37868;-82
2024/01/05 17:36:14;;;;;;;16.58;9.35;;;;;;;9.77;52.18;98998.88;7818439;32;39366;-82
2024/01/05 17:40:30;;;;;;;18.58;10.15;;;;;;;9.56;52.64;99005.59;7818189;32;39654;-83
2024/01/05 17:44:47;;;;;;;21.67;10.27;;;;;;;9.61;52.80;99002.84;7818022;32;37768;-82
2024/01/05 17:49:04;;;;;;;18.27;9.95;;;;;;;9.49;53.33;98999.66;7818008;32;37177;-83
2024/01/05 17:53:20;;;;;;;24.35;10.18;;;;;;;9.35;53.86;98997.59;7817903;32;38981;-83
2024/01/05 17:57:37;;;;;;;20.92;9.63;;;;;;;9.39;53.94;99006.00;7817690;32;39865;-82
2024/01/05 18:01:54;;;;;;;20.33;10.98;;;;;;;9.36;54.05;99004.63;7817520;32;38688;-83
2024/01/05 18:06:10;;;;;;;19.15;10.20;;;;;;;9.34;54.27;99004.09;7817648;32;37785;-82
2024/01/05 18:10:27;;;;;;;22.95;10.68;;;;;;;9.31;54.36;98999.25;7817498;32;39341;-82
2024/01/05 18:14:44;;;;;;;20.90;11.15;;;;;;;9.35;54.30;99013.09;7817081;32;40948;-83
2024/01/05 18:19:00;;;;;;;18.67;10.93;;;;;;;9.44;54.22;99010.59;7818393;32;37708;-82
2024/01/05 18:23:17;;;;;;;21.83;11.15;;;;;;;9.33;54.59;99007.94;7821124;32;37052;-82
2024/01/05 18:27:33;;;;;;;19.35;10.63;;;;;;;9.26;55.02;98996.56;7821286;32;39324;-82
2024/01/05 18:31:50;;;;;;;19.98;10.23;;;;;;;9.29;55.15;99006.84;7821044;32;39908;-83
2024/01/05 18:36:07;;;;;;;18.20;11.23;;;;;;;9.33;55.00;99010.66;7820961;32;37878;-83
2024/01/05 18:40:23;;;;;;;21.35;10.02;;;;;;;9.38;54.84;99018.78;7820977;32;37237;-82
2024/01/05 18:44:43;;;;;;;18.30;10.20;;;;;;;9.51;54.39;99002.91;7820916;32;39986;-82
2024/01/05 18:48:59;;;;;;;20.05;10.35;;;;;;;9.50;54.42;99004.00;7820855;32;40845;-82
2024/01/05 18:53:15;;;;;;;23.25;10.52;;;;;;;9.38;54.44;99010.63;7820861;32;37980;-83
2024/01/05 18:57:32;;;;;;;18.80;10.52;;;;;;;9.32;54.35;99006.31;7820839;32;37100;-82
2024/01/05 19:01:48;;;;;;;18.15;10.30;;;;;;;9.35;54.00;98997.59;7820246;32;40089;-83
2024/01/05 19:06:05;;;;;;;22.37;10.35;;;;;;;9.25;54.18;99000.38;7820653;32;40629;-83
2024/01/05 19:10:22;;;;;;;23.70;10.48;;;;;;;9.36;53.57;99007.34;7820561;32;38104;-82
2024/01/05 19:14:38;;;;;;;21.23;10.88;;;;;;;9.44;53.21;99005.16;7820417;32;37626;-82
2024/01/05 19:18:55;;;;;;;20.08;11.07;;;;;;;9.32;53.33;99011.75;7820533;32;39541;-82
2024/01/05 19:23:11;;;;;;;21.73;10.35;;;;;;;9.26;53.49;99007.44;7820382;32;40872;-83
2024/01/05 19:27:27;;;;;;;24.52;11.10;;;;;;;9.27;53.46;99009.06;7820257;32;37809;-83
2024/01/05 19:31:44;;;;;;;17.60;10.57;;;;;;;9.26;53.44;98999.28;7820141;32;37963;-83
2024/01/05 19:36:02;;;;;;;19.33;10.93;;;;;;;9.23;53.61;99002.56;7820285;32;39933;-82
2024/01/05 19:40:19;;;;;;;21.42;10.15;;;;;;;9.19;53.85;99004.22;7820190;32;41133;-83
2024/01/05 19:44:36;;;;;;;23.30;10.55;;;;;;;9.17;53.96;98993.59;7820031;32;37949;-84
2024/01/05 19:48:54;;;;;;;18.67;10.35;;;;;;;9.27;53.49;98991.94;7820152;32;37886;-82
2024/01/05 19:53:10;;;;;;;20.10;11.12;;;;;;;9.25;53.63;98978.63;7820311;32;38844;-82
2024/01/05 19:57:27;;;;;;;24.52;11.93;;;;;;;9.29;53.76;98979.66;7819971;32;39858;-82
2024/01/05 20:01:45;;;;;;;30.98;14.70;;;;;;;9.30;53.77;98986.75;7819850;32;38044;-82
2024/01/05 20:06:03;;;;;;;36.00;16.30;;;;;;;9.30;53.55;98975.84;7819969;32;36957;-82
2024/01/05 20:10:19;;;;;;;24.30;13.00;;;;;;;9.25;53.40;98985.97;7819882;32;39245;-82